sensor_id;sensor_type;location;lat;lon;timestamp;pressure;altitude;pressure_sealevel;temperature;humidity
69751;BME280;57335;52.288;6.056;2023-12-14T00:00:49;100938.72;;;4.65;100.00
69751;BME280;57335;52.288;6.056;2023-12-14T00:03:16;100949.63;;;4.60;100.00
69751;BME280;57335;52.288;6.056;2023-12-14T00:05:42;100949.63;;;4.60;100.00
69751;BME280;57335;52.288;6.056;2023-12-14T00:08:09;100958.69;;;4.64;100.00
69751;BME280;57335;52.288;6.056;2023-12-14T00:10:35;100963.25;;;4.62;100.00
69751;BME280;57335;52.288;6.056;2023-12-14T00:13:02;100961.44;;;4.63;100.00
69751;BME280;57335;52.288;6.056;2023-12-14T00:15:30;100968.28;;;4.64;100.00
69751;BME280;57335;52.288;6.056;2023-12-14T00:17:57;100985.31;;;4.66;100.00
69751;BME280;57335;52.288;6.056;2023-12-14T00:20:24;100978.16;;;4.60;100.00
69751;BME280;57335;52.288;6.056;2023-12-14T00:22:50;100983.38;;;4.60;100.00
69751;BME280;57335;52.288;6.056;2023-12-14T00:25:17;100986.47;;;4.55;100.00
69751;BME280;57335;52.288;6.056;2023-12-14T00:27:44;100999.75;;;4.60;100.00
69751;BME280;57335;52.288;6.056;2023-12-14T00:30:10;100999.44;;;4.64;100.00
69751;BME280;57335;52.288;6.056;2023-12-14T00:32:37;101004.63;;;4.64;100.00
69751;BME280;57335;52.288;6.056;2023-12-14T00:35:04;101007.22;;;4.55;100.00
69751;BME280;57335;52.288;6.056;2023-12-14T00:37:30;101017.25;;;4.58;100.00
69751;BME280;57335;52.288;6.056;2023-12-14T00:39:57;101017.59;;;4.55;100.00
69751;BME280;57335;52.288;6.056;2023-12-14T00:42:23;101010.97;;;4.61;100.00
69751;BME280;57335;52.288;6.056;2023-12-14T00:44:50;101027.34;;;4.62;100.00
69751;BME280;57335;52.288;6.056;2023-12-14T00:47:17;101021.66;;;4.58;100.00
69751;BME280;57335;52.288;6.056;2023-12-14T00:49:43;101027.34;;;4.53;100.00
69751;BME280;57335;52.288;6.056;2023-12-14T00:52:10;101014.00;;;4.56;100.00
69751;BME280;57335;52.288;6.056;2023-12-14T00:54:36;101019.84;;;4.50;100.00
69751;BME280;57335;52.288;6.056;2023-12-14T00:57:03;101032.84;;;4.58;100.00
69751;BME280;57335;52.288;6.056;2023-12-14T00:59:30;101044.50;;;4.54;100.00
69751;BME280;57335;52.288;6.056;2023-12-14T01:01:56;101052.78;;;4.58;100.00
69751;BME280;57335;52.288;6.056;2023-12-14T01:04:23;101039.97;;;4.48;100.00
69751;BME280;57335;52.288;6.056;2023-12-14T01:06:49;101042.91;;;4.53;100.00
69751;BME280;57335;52.288;6.056;2023-12-14T01:09:16;101057.84;;;4.59;100.00
69751;BME280;57335;52.288;6.056;2023-12-14T01:11:43;101062.38;;;4.57;100.00
69751;BME280;57335;52.288;6.056;2023-12-14T01:14:09;101062.88;;;4.61;100.00
69751;BME280;57335;52.288;6.056;2023-12-14T01:16:36;101067.06;;;4.54;100.00
69751;BME280;57335;52.288;6.056;2023-12-14T01:19:02;101072.25;;;4.54;100.00
69751;BME280;57335;52.288;6.056;2023-12-14T01:21:29;101076.31;;;4.56;100.00
69751;BME280;57335;52.288;6.056;2023-12-14T01:23:55;101084.59;;;4.60;100.00
69751;BME280;57335;52.288;6.056;2023-12-14T01:26:22;101088.63;;;4.54;100.00
69751;BME280;57335;52.288;6.056;2023-12-14T01:28:49;101094.31;;;4.58;100.00
69751;BME280;57335;52.288;6.056;2023-12-14T01:31:15;101088.97;;;4.51;100.00
69751;BME280;57335;52.288;6.056;2023-12-14T01:33:42;101087.34;;;4.50;100.00
69751;BME280;57335;52.288;6.056;2023-12-14T01:36:08;101094.81;;;4.53;100.00
69751;BME280;57335;52.288;6.056;2023-12-14T01:38:35;101105.22;;;4.62;100.00
69751;BME280;57335;52.288;6.056;2023-12-14T01:41:01;101113.31;;;4.58;100.00
69751;BME280;57335;52.288;6.056;2023-12-14T01:43:28;101129.22;;;4.55;100.00
69751;BME280;57335;52.288;6.056;2023-12-14T01:45:55;101123.50;;;4.52;100.00
69751;BME280;57335;52.288;6.056;2023-12-14T01:48:21;101124.00;;;4.55;100.00
69751;BME280;57335;52.288;6.056;2023-12-14T01:50:48;101124.66;;;4.49;100.00
69751;BME280;57335;52.288;6.056;2023-12-14T01:53:14;101137.16;;;4.54;100.00
69751;BME280;57335;52.288;6.056;2023-12-14T01:55:41;101140.53;;;4.54;100.00
69751;BME280;57335;52.288;6.056;2023-12-14T01:58:08;101138.44;;;4.58;100.00
69751;BME280;57335;52.288;6.056;2023-12-14T02:00:36;101151.13;;;4.61;100.00
69751;BME280;57335;52.288;6.056;2023-12-14T02:03:05;101142.81;;;4.49;100.00
69751;BME280;57335;52.288;6.056;2023-12-14T02:05:32;101155.16;;;4.55;100.00
69751;BME280;57335;52.288;6.056;2023-12-14T02:07:59;101142.63;;;4.51;100.00
69751;BME280;57335;52.288;6.056;2023-12-14T02:10:25;101146.06;;;4.51;100.00
69751;BME280;57335;52.288;6.056;2023-12-14T02:12:52;101154.69;;;4.60;100.00
69751;BME280;57335;52.288;6.056;2023-12-14T02:15:18;101159.88;;;4.60;100.00
69751;BME280;57335;52.288;6.056;2023-12-14T02:17:45;101157.75;;;4.55;100.00
69751;BME280;57335;52.288;6.056;2023-12-14T02:20:12;101172.03;;;4.59;100.00
69751;BME280;57335;52.288;6.056;2023-12-14T02:22:51;101184.53;;;4.56;100.00
69751;BME280;57335;52.288;6.056;2023-12-14T02:25:19;101191.31;;;4.57;100.00
69751;BME280;57335;52.288;6.056;2023-12-14T02:27:46;101193.13;;;4.65;100.00
69751;BME280;57335;52.288;6.056;2023-12-14T02:30:13;101193.78;;;4.67;100.00
69751;BME280;57335;52.288;6.056;2023-12-14T02:32:40;101193.13;;;4.65;100.00
69751;BME280;57335;52.288;6.056;2023-12-14T02:35:08;101204.34;;;4.65;100.00
69751;BME280;57335;52.288;6.056;2023-12-14T02:37:35;101199.47;;;4.62;100.00
69751;BME280;57335;52.288;6.056;2023-12-14T02:40:07;101202.06;;;4.62;100.00
69751;BME280;57335;52.288;6.056;2023-12-14T02:42:34;101201.25;;;4.62;100.00
69751;BME280;57335;52.288;6.056;2023-12-14T02:45:02;101215.84;;;4.63;100.00
69751;BME280;57335;52.288;6.056;2023-12-14T02:47:29;101207.41;;;4.60;100.00
69751;BME280;57335;52.288;6.056;2023-12-14T02:49:56;101214.06;;;4.63;100.00
69751;BME280;57335;52.288;6.056;2023-12-14T02:52:22;101216.81;;;4.62;100.00
69751;BME280;57335;52.288;6.056;2023-12-14T02:54:49;101227.34;;;4.60;100.00
69751;BME280;57335;52.288;6.056;2023-12-14T02:57:16;101224.28;;;4.65;100.00
69751;BME280;57335;52.288;6.056;2023-12-14T02:59:42;101225.06;;;4.57;100.00
69751;BME280;57335;52.288;6.056;2023-12-14T03:02:09;101232.84;;;4.57;100.00
69751;BME280;57335;52.288;6.056;2023-12-14T03:04:38;101242.13;;;4.59;100.00
69751;BME280;57335;52.288;6.056;2023-12-14T03:07:08;101248.44;;;4.57;100.00
69751;BME280;57335;52.288;6.056;2023-12-14T03:09:34;101245.34;;;4.53;100.00
69751;BME280;57335;52.288;6.056;2023-12-14T03:12:01;101235.75;;;4.46;100.00
69751;BME280;57335;52.288;6.056;2023-12-14T03:14:31;101249.25;;;4.57;100.00
69751;BME280;57335;52.288;6.056;2023-12-14T03:16:59;101251.69;;;4.59;100.00
69751;BME280;57335;52.288;6.056;2023-12-14T03:19:26;101260.31;;;4.59;100.00
69751;BME280;57335;52.288;6.056;2023-12-14T03:21:53;101259.47;;;4.59;100.00
69751;BME280;57335;52.288;6.056;2023-12-14T03:24:20;101252.16;;;4.54;100.00
69751;BME280;57335;52.288;6.056;2023-12-14T03:26:47;101257.66;;;4.51;100.00
69751;BME280;57335;52.288;6.056;2023-12-14T03:29:13;101266.91;;;4.54;100.00
69751;BME280;57335;52.288;6.056;2023-12-14T03:31:40;101261.22;;;4.50;100.00
69751;BME280;57335;52.288;6.056;2023-12-14T03:34:06;101263.53;;;4.53;100.00
69751;BME280;57335;52.288;6.056;2023-12-14T03:36:33;101272.59;;;4.49;100.00
69751;BME280;57335;52.288;6.056;2023-12-14T03:38:59;101277.78;;;4.49;100.00
69751;BME280;57335;52.288;6.056;2023-12-14T03:41:26;101275.19;;;4.49;100.00
69751;BME280;57335;52.288;6.056;2023-12-14T03:43:53;101278.88;;;4.47;100.00
69751;BME280;57335;52.288;6.056;2023-12-14T03:46:19;101263.41;;;4.37;100.00
69751;BME280;57335;52.288;6.056;2023-12-14T03:48:46;101274.19;;;4.50;100.00
69751;BME280;57335;52.288;6.056;2023-12-14T03:51:13;101279.72;;;4.47;100.00
69751;BME280;57335;52.288;6.056;2023-12-14T03:53:40;101293.66;;;4.46;100.00
69751;BME280;57335;52.288;6.056;2023-12-14T03:56:06;101276.25;;;4.38;100.00
69751;BME280;57335;52.288;6.056;2023-12-14T03:58:33;101291.72;;;4.48;100.00
69751;BME280;57335;52.288;6.056;2023-12-14T04:01:00;101296.59;;;4.51;100.00
69751;BME280;57335;52.288;6.056;2023-12-14T04:03:27;101293.34;;;4.49;100.00
69751;BME280;57335;52.288;6.056;2023-12-14T04:05:53;101300.16;;;4.50;100.00
69751;BME280;57335;52.288;6.056;2023-12-14T04:08:20;101294.31;;;4.48;100.00
69751;BME280;57335;52.288;6.056;2023-12-14T04:10:46;101287.78;;;4.44;100.00
69751;BME280;57335;52.288;6.056;2023-12-14T04:13:13;101288.94;;;4.42;100.00
69751;BME280;57335;52.288;6.056;2023-12-14T04:15:39;101282.56;;;4.36;100.00
69751;BME280;57335;52.288;6.056;2023-12-14T04:18:09;101293.09;;;4.34;100.00
69751;BME280;57335;52.288;6.056;2023-12-14T04:20:35;101303.63;;;4.33;100.00
69751;BME280;57335;52.288;6.056;2023-12-14T04:23:02;101298.28;;;4.34;100.00
69751;BME280;57335;52.288;6.056;2023-12-14T04:25:29;101309.78;;;4.32;100.00
69751;BME280;57335;52.288;6.056;2023-12-14T04:27:55;101309.47;;;4.35;100.00
69751;BME280;57335;52.288;6.056;2023-12-14T04:30:22;101317.88;;;4.29;100.00
69751;BME280;57335;52.288;6.056;2023-12-14T04:32:48;101321.78;;;4.33;100.00
69751;BME280;57335;52.288;6.056;2023-12-14T04:35:15;101324.03;;;4.28;100.00
69751;BME280;57335;52.288;6.056;2023-12-14T04:37:42;101328.41;;;4.27;100.00
69751;BME280;57335;52.288;6.056;2023-12-14T04:40:08;101333.91;;;4.24;100.00
69751;BME280;57335;52.288;6.056;2023-12-14T04:42:36;101335.53;;;4.25;100.00
69751;BME280;57335;52.288;6.056;2023-12-14T04:45:03;101347.19;;;4.21;100.00
69751;BME280;57335;52.288;6.056;2023-12-14T04:47:30;101357.03;;;4.17;100.00
69751;BME280;57335;52.288;6.056;2023-12-14T04:49:56;101357.84;;;4.18;100.00
69751;BME280;57335;52.288;6.056;2023-12-14T04:52:23;101366.91;;;4.14;100.00
69751;BME280;57335;52.288;6.056;2023-12-14T04:54:50;101372.75;;;4.16;100.00
69751;BME280;57335;52.288;6.056;2023-12-14T04:57:17;101375.94;;;4.10;100.00
69751;BME280;57335;52.288;6.056;2023-12-14T04:59:43;101380.63;;;4.06;100.00
69751;BME280;57335;52.288;6.056;2023-12-14T05:02:10;101393.59;;;4.06;100.00
69751;BME280;57335;52.288;6.056;2023-12-14T05:04:36;101400.75;;;4.12;100.00
69751;BME280;57335;52.288;6.056;2023-12-14T05:07:04;101405.66;;;4.15;100.00
69751;BME280;57335;52.288;6.056;2023-12-14T05:09:52;101409.22;;;4.14;100.00
69751;BME280;57335;52.288;6.056;2023-12-14T05:12:33;101411.47;;;4.09;100.00
69751;BME280;57335;52.288;6.056;2023-12-14T05:15:08;101417.44;;;4.10;100.00
69751;BME280;57335;52.288;6.056;2023-12-14T05:17:36;101422.19;;;4.14;100.00
69751;BME280;57335;52.288;6.056;2023-12-14T05:20:04;101428.34;;;4.13;100.00
69751;BME280;57335;52.288;6.056;2023-12-14T05:22:32;101427.22;;;4.16;100.00
69751;BME280;57335;52.288;6.056;2023-12-14T05:25:00;101433.75;;;4.20;100.00
69751;BME280;57335;52.288;6.056;2023-12-14T05:27:27;101433.59;;;4.22;100.00
69751;BME280;57335;52.288;6.056;2023-12-14T05:29:54;101446.50;;;4.31;100.00
69751;BME280;57335;52.288;6.056;2023-12-14T05:32:21;101445.31;;;4.26;100.00
69751;BME280;57335;52.288;6.056;2023-12-14T05:34:48;101454.03;;;4.25;100.00
69751;BME280;57335;52.288;6.056;2023-12-14T05:37:17;101455.31;;;4.20;100.00
69751;BME280;57335;52.288;6.056;2023-12-14T05:39:44;101459.63;;;4.30;100.00
69751;BME280;57335;52.288;6.056;2023-12-14T05:42:11;101462.34;;;4.28;100.00
69751;BME280;57335;52.288;6.056;2023-12-14T05:44:41;101468.88;;;4.32;100.00
69751;BME280;57335;52.288;6.056;2023-12-14T05:47:11;101476.66;;;4.32;100.00
69751;BME280;57335;52.288;6.056;2023-12-14T05:49:55;101480.06;;;4.33;100.00
69751;BME280;57335;52.288;6.056;2023-12-14T05:52:22;101490.28;;;4.34;100.00
69751;BME280;57335;52.288;6.056;2023-12-14T05:54:49;101489.50;;;4.34;100.00
69751;BME280;57335;52.288;6.056;2023-12-14T05:57:16;101493.56;;;4.36;100.00
69751;BME280;57335;52.288;6.056;2023-12-14T05:59:43;101496.47;;;4.33;100.00
69751;BME280;57335;52.288;6.056;2023-12-14T06:02:11;101501.19;;;4.38;100.00
69751;BME280;57335;52.288;6.056;2023-12-14T06:04:52;101510.25;;;4.34;100.00
69751;BME280;57335;52.288;6.056;2023-12-14T06:07:19;101517.31;;;4.42;100.00
69751;BME280;57335;52.288;6.056;2023-12-14T06:09:50;101515.66;;;4.40;100.00
69751;BME280;57335;52.288;6.056;2023-12-14T06:12:17;101505.00;;;4.44;100.00
69751;BME280;57335;52.288;6.056;2023-12-14T06:14:51;101520.69;;;4.42;100.00
69751;BME280;57335;52.288;6.056;2023-12-14T06:17:34;101518.69;;;4.36;100.00
69751;BME280;57335;52.288;6.056;2023-12-14T06:20:06;101518.41;;;4.39;100.00
69751;BME280;57335;52.288;6.056;2023-12-14T06:22:36;101540.50;;;4.43;100.00
69751;BME280;57335;52.288;6.056;2023-12-14T06:25:03;101539.53;;;4.44;100.00
69751;BME280;57335;52.288;6.056;2023-12-14T06:27:41;101543.09;;;4.43;100.00
69751;BME280;57335;52.288;6.056;2023-12-14T06:30:08;101551.97;;;4.40;100.00
69751;BME280;57335;52.288;6.056;2023-12-14T06:32:36;101567.94;;;4.46;100.00
69751;BME280;57335;52.288;6.056;2023-12-14T06:35:04;101569.56;;;4.47;100.00
69751;BME280;57335;52.288;6.056;2023-12-14T06:37:31;101560.09;;;4.37;100.00
69751;BME280;57335;52.288;6.056;2023-12-14T06:39:59;101572.59;;;4.42;100.00
69751;BME280;57335;52.288;6.056;2023-12-14T06:42:29;101576.69;;;4.45;100.00
69751;BME280;57335;52.288;6.056;2023-12-14T06:44:58;101573.59;;;4.41;100.00
69751;BME280;57335;52.288;6.056;2023-12-14T06:47:24;101580.31;;;4.34;100.00
69751;BME280;57335;52.288;6.056;2023-12-14T06:49:51;101581.44;;;4.31;100.00
69751;BME280;57335;52.288;6.056;2023-12-14T06:52:18;101579.56;;;4.24;100.00
69751;BME280;57335;52.288;6.056;2023-12-14T06:54:45;101582.00;;;4.25;100.00
69751;BME280;57335;52.288;6.056;2023-12-14T06:57:12;101580.00;;;4.19;100.00
69751;BME280;57335;52.288;6.056;2023-12-14T06:59:41;101578.81;;;4.13;100.00
69751;BME280;57335;52.288;6.056;2023-12-14T07:02:11;101582.06;;;4.15;100.00
69751;BME280;57335;52.288;6.056;2023-12-14T07:04:39;101592.63;;;4.04;100.00
69751;BME280;57335;52.288;6.056;2023-12-14T07:07:06;101599.16;;;4.08;100.00
69751;BME280;57335;52.288;6.056;2023-12-14T07:09:35;101605.03;;;4.10;100.00
69751;BME280;57335;52.288;6.056;2023-12-14T07:12:02;101616.88;;;4.13;100.00
69751;BME280;57335;52.288;6.056;2023-12-14T07:14:29;101620.03;;;4.07;100.00
69751;BME280;57335;52.288;6.056;2023-12-14T07:16:56;101629.34;;;4.09;100.00
69751;BME280;57335;52.288;6.056;2023-12-14T07:19:23;101632.44;;;4.13;100.00
69751;BME280;57335;52.288;6.056;2023-12-14T07:21:50;101636.69;;;4.14;100.00
69751;BME280;57335;52.288;6.056;2023-12-14T07:24:16;101651.59;;;4.02;100.00
69751;BME280;57335;52.288;6.056;2023-12-14T07:26:43;101644.38;;;4.06;100.00
69751;BME280;57335;52.288;6.056;2023-12-14T07:29:10;101644.81;;;4.01;100.00
69751;BME280;57335;52.288;6.056;2023-12-14T07:31:37;101652.00;;;4.07;100.00
69751;BME280;57335;52.288;6.056;2023-12-14T07:34:04;101656.34;;;4.07;100.00
69751;BME280;57335;52.288;6.056;2023-12-14T07:36:30;101660.16;;;4.12;100.00
69751;BME280;57335;52.288;6.056;2023-12-14T07:38:57;101663.88;;;4.10;100.00
69751;BME280;57335;52.288;6.056;2023-12-14T07:41:26;101666.50;;;4.00;100.00
69751;BME280;57335;52.288;6.056;2023-12-14T07:43:56;101670.41;;;4.14;100.00
69751;BME280;57335;52.288;6.056;2023-12-14T07:46:23;101677.34;;;4.23;100.00
69751;BME280;57335;52.288;6.056;2023-12-14T07:49:15;101678.53;;;4.29;100.00
69751;BME280;57335;52.288;6.056;2023-12-14T07:52:07;101674.00;;;4.31;100.00
69751;BME280;57335;52.288;6.056;2023-12-14T07:54:54;101682.75;;;4.30;100.00
69751;BME280;57335;52.288;6.056;2023-12-14T07:57:35;101691.00;;;4.25;100.00
69751;BME280;57335;52.288;6.056;2023-12-14T08:00:16;101702.94;;;4.36;100.00
69751;BME280;57335;52.288;6.056;2023-12-14T08:03:06;101713.06;;;4.39;100.00
69751;BME280;57335;52.288;6.056;2023-12-14T08:05:35;101716.59;;;4.38;100.00
69751;BME280;57335;52.288;6.056;2023-12-14T08:08:02;101725.34;;;4.37;100.00
69751;BME280;57335;52.288;6.056;2023-12-14T08:10:30;101719.63;;;4.33;100.00
69751;BME280;57335;52.288;6.056;2023-12-14T08:12:57;101720.72;;;4.31;100.00
69751;BME280;57335;52.288;6.056;2023-12-14T08:15:24;101730.53;;;4.37;100.00
69751;BME280;57335;52.288;6.056;2023-12-14T08:17:52;101730.53;;;4.37;100.00
69751;BME280;57335;52.288;6.056;2023-12-14T08:20:32;101737.34;;;4.38;100.00
69751;BME280;57335;52.288;6.056;2023-12-14T08:23:01;101730.81;;;4.34;100.00
69751;BME280;57335;52.288;6.056;2023-12-14T08:25:32;101738.75;;;4.32;100.00
69751;BME280;57335;52.288;6.056;2023-12-14T08:27:58;101733.44;;;4.24;100.00
69751;BME280;57335;52.288;6.056;2023-12-14T08:30:30;101738.78;;;4.23;100.00
69751;BME280;57335;52.288;6.056;2023-12-14T08:32:58;101748.34;;;4.22;100.00
69751;BME280;57335;52.288;6.056;2023-12-14T08:35:24;101744.94;;;4.22;100.00
69751;BME280;57335;52.288;6.056;2023-12-14T08:37:51;101751.75;;;4.23;100.00
69751;BME280;57335;52.288;6.056;2023-12-14T08:40:17;101758.28;;;4.27;100.00
69751;BME280;57335;52.288;6.056;2023-12-14T08:42:44;101757.88;;;4.31;100.00
69751;BME280;57335;52.288;6.056;2023-12-14T08:45:13;101758.69;;;4.32;100.00
69751;BME280;57335;52.288;6.056;2023-12-14T08:47:40;101771.63;;;4.42;100.00
69751;BME280;57335;52.288;6.056;2023-12-14T08:50:08;101775.59;;;4.46;100.00
69751;BME280;57335;52.288;6.056;2023-12-14T08:52:42;101778.72;;;4.49;100.00
69751;BME280;57335;52.288;6.056;2023-12-14T08:55:10;101791.41;;;4.52;100.00
69751;BME280;57335;52.288;6.056;2023-12-14T08:57:39;101798.75;;;4.57;100.00
69751;BME280;57335;52.288;6.056;2023-12-14T09:00:07;101801.88;;;4.60;100.00
69751;BME280;57335;52.288;6.056;2023-12-14T09:02:36;101800.81;;;4.63;100.00
69751;BME280;57335;52.288;6.056;2023-12-14T09:05:04;101799.97;;;4.63;100.00
69751;BME280;57335;52.288;6.056;2023-12-14T09:07:37;101812.66;;;4.66;100.00
69751;BME280;57335;52.288;6.056;2023-12-14T09:10:07;101804.06;;;4.65;100.00
69751;BME280;57335;52.288;6.056;2023-12-14T09:12:35;101810.22;;;4.64;100.00
69751;BME280;57335;52.288;6.056;2023-12-14T09:15:04;101816.06;;;4.66;100.00
69751;BME280;57335;52.288;6.056;2023-12-14T09:17:33;101820.31;;;4.67;100.00
69751;BME280;57335;52.288;6.056;2023-12-14T09:20:04;101831.22;;;4.71;100.00
69751;BME280;57335;52.288;6.056;2023-12-14T09:22:33;101823.88;;;4.66;100.00
69751;BME280;57335;52.288;6.056;2023-12-14T09:25:01;101826.59;;;4.65;100.00
69751;BME280;57335;52.288;6.056;2023-12-14T09:27:30;101837.28;;;4.62;100.00
69751;BME280;57335;52.288;6.056;2023-12-14T09:29:57;101832.63;;;4.65;100.00
69751;BME280;57335;52.288;6.056;2023-12-14T09:32:24;101844.38;;;4.69;100.00
69751;BME280;57335;52.288;6.056;2023-12-14T09:34:53;101851.72;;;4.74;100.00
69751;BME280;57335;52.288;6.056;2023-12-14T09:37:23;101856.63;;;4.77;100.00
69751;BME280;57335;52.288;6.056;2023-12-14T09:39:52;101843.63;;;4.77;100.00
69751;BME280;57335;52.288;6.056;2023-12-14T09:42:21;101854.84;;;4.77;100.00
69751;BME280;57335;52.288;6.056;2023-12-14T09:44:52;101851.59;;;4.75;100.00
69751;BME280;57335;52.288;6.056;2023-12-14T09:47:19;101858.25;;;4.78;100.00
69751;BME280;57335;52.288;6.056;2023-12-14T09:49:47;101858.66;;;4.83;100.00
69751;BME280;57335;52.288;6.056;2023-12-14T09:52:17;101866.16;;;4.86;100.00
69751;BME280;57335;52.288;6.056;2023-12-14T09:54:54;101875.16;;;4.92;100.00
69751;BME280;57335;52.288;6.056;2023-12-14T09:57:29;101867.38;;;4.92;100.00
69751;BME280;57335;52.288;6.056;2023-12-14T10:00:37;101872.13;;;4.96;100.00
69751;BME280;57335;52.288;6.056;2023-12-14T10:03:26;101869.66;;;4.95;100.00
69751;BME280;57335;52.288;6.056;2023-12-14T10:05:56;101882.81;;;4.93;100.00
69751;BME280;57335;52.288;6.056;2023-12-14T10:08:38;101885.41;;;4.93;100.00
69751;BME280;57335;52.288;6.056;2023-12-14T10:11:15;101872.34;;;4.85;100.00
69751;BME280;57335;52.288;6.056;2023-12-14T10:13:50;101897.16;;;4.97;100.00
69751;BME280;57335;52.288;6.056;2023-12-14T10:16:36;101904.94;;;4.97;100.00
69751;BME280;57335;52.288;6.056;2023-12-14T10:19:09;101909.56;;;5.04;100.00
69751;BME280;57335;52.288;6.056;2023-12-14T10:21:36;101918.41;;;5.11;100.00
69751;BME280;57335;52.288;6.056;2023-12-14T10:24:02;101915.81;;;5.11;100.00
69751;BME280;57335;52.288;6.056;2023-12-14T10:26:30;101922.91;;;5.18;100.00
69751;BME280;57335;52.288;6.056;2023-12-14T10:28:57;101907.84;;;5.22;100.00
69751;BME280;57335;52.288;6.056;2023-12-14T10:31:24;101917.00;;;5.26;100.00
69751;BME280;57335;52.288;6.056;2023-12-14T10:33:52;101915.88;;;5.29;100.00
69751;BME280;57335;52.288;6.056;2023-12-14T10:36:22;101932.00;;;5.32;100.00
69751;BME280;57335;52.288;6.056;2023-12-14T10:38:53;101923.25;;;5.33;100.00
69751;BME280;57335;52.288;6.056;2023-12-14T10:41:21;101932.41;;;5.37;100.00
69751;BME280;57335;52.288;6.056;2023-12-14T10:43:54;101932.69;;;5.34;100.00
69751;BME280;57335;52.288;6.056;2023-12-14T10:46:42;101942.28;;;5.34;100.00
69751;BME280;57335;52.288;6.056;2023-12-14T10:49:11;101939.00;;;5.32;100.00
69751;BME280;57335;52.288;6.056;2023-12-14T10:51:39;101937.34;;;5.31;100.00
69751;BME280;57335;52.288;6.056;2023-12-14T10:54:11;101931.66;;;5.27;100.00
69751;BME280;57335;52.288;6.056;2023-12-14T10:56:38;101926.72;;;5.24;100.00
69751;BME280;57335;52.288;6.056;2023-12-14T10:59:06;101931.91;;;5.24;100.00
69751;BME280;57335;52.288;6.056;2023-12-14T11:01:33;101936.00;;;5.27;100.00
69751;BME280;57335;52.288;6.056;2023-12-14T11:04:05;101939.56;;;5.26;100.00
69751;BME280;57335;52.288;6.056;2023-12-14T11:06:41;101935.56;;;5.04;100.00
69751;BME280;57335;52.288;6.056;2023-12-14T11:09:23;101938.06;;;4.95;100.00
69751;BME280;57335;52.288;6.056;2023-12-14T11:11:56;101951.06;;;4.86;100.00
69751;BME280;57335;52.288;6.056;2023-12-14T11:14:31;101955.56;;;4.93;100.00
69751;BME280;57335;52.288;6.056;2023-12-14T11:17:08;101942.59;;;4.84;100.00
69751;BME280;57335;52.288;6.056;2023-12-14T11:19:43;101941.94;;;4.72;100.00
69751;BME280;57335;52.288;6.056;2023-12-14T11:22:23;101944.09;;;4.76;100.00
69751;BME280;57335;52.288;6.056;2023-12-14T11:24:59;101966.19;;;5.00;100.00
69751;BME280;57335;52.288;6.056;2023-12-14T11:27:34;101950.03;;;5.06;100.00
69751;BME280;57335;52.288;6.056;2023-12-14T11:30:44;101958.19;;;5.21;100.00
69751;BME280;57335;52.288;6.056;2023-12-14T11:33:29;101962.56;;;5.20;100.00
69751;BME280;57335;52.288;6.056;2023-12-14T11:36:20;101966.09;;;5.29;100.00
69751;BME280;57335;52.288;6.056;2023-12-14T11:39:11;101972.06;;;5.39;100.00
69751;BME280;57335;52.288;6.056;2023-12-14T11:42:29;101977.91;;;5.51;100.00
69751;BME280;57335;52.288;6.056;2023-12-14T11:45:24;101988.25;;;5.61;100.00
69751;BME280;57335;52.288;6.056;2023-12-14T11:48:12;101984.91;;;5.69;100.00
69751;BME280;57335;52.288;6.056;2023-12-14T11:50:55;101977.97;;;5.69;100.00
69751;BME280;57335;52.288;6.056;2023-12-14T11:54:03;101990.59;;;5.82;100.00
69751;BME280;57335;52.288;6.056;2023-12-14T11:57:06;102000.44;;;5.88;100.00
69751;BME280;57335;52.288;6.056;2023-12-14T12:00:14;102004.81;;;5.88;100.00
69751;BME280;57335;52.288;6.056;2023-12-14T12:03:54;101997.00;;;5.88;100.00
69751;BME280;57335;52.288;6.056;2023-12-14T12:07:05;101999.03;;;5.94;100.00
69751;BME280;57335;52.288;6.056;2023-12-14T12:10:08;101980.41;;;5.89;100.00
69751;BME280;57335;52.288;6.056;2023-12-14T12:13:05;102000.41;;;5.98;100.00
69751;BME280;57335;52.288;6.056;2023-12-14T12:15:57;101994.94;;;5.91;100.00
69751;BME280;57335;52.288;6.056;2023-12-14T12:18:50;102000.41;;;5.98;100.00
69751;BME280;57335;52.288;6.056;2023-12-14T12:22:33;101999.41;;;5.99;100.00
69751;BME280;57335;52.288;6.056;2023-12-14T12:25:18;102003.09;;;6.06;100.00
69751;BME280;57335;52.288;6.056;2023-12-14T12:28:32;101996.09;;;6.07;100.00
69751;BME280;57335;52.288;6.056;2023-12-14T12:31:04;102001.53;;;6.13;100.00
69751;BME280;57335;52.288;6.056;2023-12-14T12:34:09;102008.09;;;6.17;100.00
69751;BME280;57335;52.288;6.056;2023-12-14T12:37:05;102003.69;;;6.18;100.00
69751;BME280;57335;52.288;6.056;2023-12-14T12:39:37;102013.13;;;6.19;100.00
69751;BME280;57335;52.288;6.056;2023-12-14T12:42:06;102015.59;;;6.21;100.00
69751;BME280;57335;52.288;6.056;2023-12-14T12:44:36;102014.31;;;6.25;100.00
69751;BME280;57335;52.288;6.056;2023-12-14T12:47:06;102009.13;;;6.25;100.00
69751;BME280;57335;52.288;6.056;2023-12-14T12:49:38;102008.44;;;6.23;100.00
69751;BME280;57335;52.288;6.056;2023-12-14T12:52:05;102026.06;;;6.29;100.00
69751;BME280;57335;52.288;6.056;2023-12-14T12:54:37;102036.47;;;6.29;100.00
69751;BME280;57335;52.288;6.056;2023-12-14T12:57:04;102032.25;;;6.28;100.00
69751;BME280;57335;52.288;6.056;2023-12-14T12:59:32;102032.25;;;6.28;100.00
69751;BME280;57335;52.288;6.056;2023-12-14T13:02:00;102030.75;;;6.25;100.00
69751;BME280;57335;52.288;6.056;2023-12-14T13:04:29;102029.66;;;6.28;100.00
69751;BME280;57335;52.288;6.056;2023-12-14T13:06:58;102027.06;;;6.28;100.00
69751;BME280;57335;52.288;6.056;2023-12-14T13:09:25;102029.66;;;6.28;100.00
69751;BME280;57335;52.288;6.056;2023-12-14T13:11:53;102028.66;;;6.29;100.00